自拍揄拍第86页

EMBD-023磁力链 91在线自拍 2018亚洲天堂在线

四十路五十路熟女 おばさんの淫乱テクニック
023是哪里的区号Herzlich Willkommen auf der Webseite der Gemeinde Embd GIS-Karte Hier geht's zur GIS-Karte der Gemeinde Embd: GIS-Karte öffnen Öffnungszeiten
023规格/型号:EMHD-023 单颗贝壳片规格/型号:EMBD-003 贝 壳片尺寸:10×20mm 整块尺寸:根据客户要求定做
023档案 电视剧Example METARZGSZ 170130Z 10003MPS 060V130 6000 SCT020 27/16 Q1009 ISOLCB OCNL EMBD CB FRQ EMBD CB
网站排名 网站排名优化 百度网站排名 Copyright © 1998 - 2015 embd. All Rights Reserved. 易名百度 版权所有
磁力链接,磁力链接下载 语言:性质:国产软件 软件大小:33.52 MB 迅播云是针对windows平台而开发
METAR ZPPP 100600Z 19004MPS 4000 SHRA FEW010 SCT023TCU OVC036 12/11 Q1025 BECMG FM0700 9999 NSW=译文
1磁力下载搜索引擎是资源更多的磁力搜索引擎,自带番号搜索、磁力搜索功能,更好用的BT种子搜索引擎!
2015年2月25日 - TPS22965EVM-023TIMODULE EVAL FOP TPS22965-023 TPS22946EVM-499TIEVALUATION BOARD TPS22946 TPS22924DEVM-532TIEVAL MODULE FOR TPS22924D TPS2296
TARA-Embd-Wizard 储存到myST 分享 打印Embedded Wizard graphic framework for STM32 快速浏览 Solutions 资源 工具和软件 Sales Briefcase 样片和购买 质量和可靠
在网络发达的年代,大家总是可以在网路上找到各式各样新奇又特别的事物,当然也会有着各种奇怪的流行,日前
91porm视频自拍网站是一款宅男福利看片神器。用户可以观看到国内外影视剧资源,你想看什么影视剧,都可以在

猜你喜欢